Latest Weather Observations for Perth

IDW60801

Issued at 9:23 pm WST Wednesday 20 February 2019 (issued every 10 minutes, with the page automatically refreshed every 10 minutes)

About weather observations | Map of weather stations | Latest weather observations for WA | Other Formats
Station Details ID: 009225 Name: PERTH METRO Lat: -31.92 Lon: 115.87 Height: 24.9 m
Data from the previous 72 hours. | See also: Recent months at Perth
Date/Time
WST
Temp
°C
App
Temp
°C
Dew
Point
°C
Rel
Hum
%
Delta-T
°C
Wind Press
QNH
hPa
Press
MSL
hPa
Rain since
9am
mm
Dir  Spd
km/h
Gust
km/h
Spd
kts
Gust
kts
20/09:00pm 20.5 21.5 16.9 80 2.2 W 7 13 4 7 1012.8 1012.6 0.0
20/08:30pm 20.8 21.8 16.8 78 2.4 WSW 7 13 4 7 1012.5 1012.3 0.0
20/08:00pm 21.0 21.5 16.6 76 2.7 W 9 15 5 8 1012.4 1012.2 0.0
20/07:30pm 21.3 21.8 16.5 74 2.9 W 9 19 5 10 1012.0 1011.9 0.0
20/07:00pm 21.8 22.2 16.3 71 3.3 WSW 9 19 5 10 1011.7 1011.6 0.0
20/06:30pm 22.6 22.6 16.2 67 3.9 WSW 11 17 6 9 1011.7 1011.6 0.0
20/06:00pm 23.2 23.0 15.8 63 4.5 WSW 11 20 6 11 1011.6 1011.5 0.0
20/05:30pm 24.4 23.7 15.3 57 5.5 WSW 13 20 7 11 1011.4 1011.3 0.0
20/05:00pm 25.4 24.5 14.8 52 6.4 W 13 20 7 11 1011.3 1011.2 0.0
20/04:30pm 25.9 24.8 14.4 49 6.9 W 13 24 7 13 1011.0 1010.9 0.0
20/04:00pm 26.5 24.6 12.9 43 7.9 SW 15 26 8 14 1010.9 1010.8 0.0
20/03:30pm 26.8 23.8 12.1 40 8.5 WSW 19 30 10 16 1011.0 1010.9 0.0
20/03:00pm 27.0 24.2 12.6 41 8.4 W 19 35 10 19 1011.0 1010.9 0.0
20/02:30pm 28.3 26.5 13.4 40 8.8 W 15 28 8 15 1010.9 1010.8 0.0
20/02:00pm 28.5 26.5 12.8 38 9.2 W 15 22 8 12 1010.9 1010.8 0.0
20/01:30pm 29.7 28.2 13.0 35 9.9 W 13 22 7 12 1010.9 1010.8 0.0
20/01:00pm 29.7 28.5 13.9 38 9.5 WSW 13 24 7 13 1010.7 1010.6 0.0
20/12:30pm 29.6 28.2 14.6 40 9.1 WSW 15 22 8 12 1010.8 1010.7 0.0
20/12:00pm 30.7 30.3 15.2 39 9.5 WSW 11 20 6 11 1010.8 1010.7 0.0
20/11:30am 29.7 29.2 12.2 34 10.2 NW 6 11 3 6 1011.2 1011.1 0.0
20/11:00am 29.3 29.6 13.5 38 9.4 SE 4 9 2 5 1011.6 1011.5 0.0
20/10:30am 28.1 28.1 12.5 38 9.1 NNW 4 7 2 4 1011.9 1011.8 0.0
20/10:00am 27.0 27.5 14.1 45 7.7 ENE 4 11 2 6 1012.3 1012.1 0.0
20/09:30am 25.8 25.6 13.6 47 7.2 NE 7 15 4 8 1012.3 1012.1 0.0
20/09:00am 24.3 23.5 12.9 49 6.6 ENE 9 15 5 8 1012.6 1012.4 0.0
20/08:30am 23.6 23.6 13.5 53 5.9 SSE 6 11 3 6 1012.6 1012.4 0.0
20/08:00am 23.1 23.4 13.3 54 5.7 SSE 4 7 2 4 1012.7 1012.5 0.0
20/07:30am 21.7 21.6 13.3 59 4.8 SSE 6 9 3 5 1012.9 1012.7 0.0
20/07:00am 19.3 19.6 13.5 69 3.3 ENE 4 9 2 5 1012.9 1012.7 0.0
20/06:30am 17.1 18.3 13.8 81 1.9 CALM 0 0 0 0 1012.7 1012.5 0.0
20/06:00am 16.9 18.0 13.6 81 1.9 CALM 0 0 0 0 1012.6 1012.4 0.0
20/05:30am 17.4 18.6 13.7 79 2.1 CALM 0 0 0 0 1012.3 1012.1 0.0
20/05:00am 17.7 19.0 14.0 79 2.1 CALM 0 0 0 0 1011.9 1011.8 0.0
20/04:30am 18.5 19.8 14.0 75 2.6 CALM 0 0 0 0 1011.6 1011.5 0.0
20/04:00am 19.6 20.6 13.3 67 3.6 CALM 0 0 0 0 1011.7 1011.6 0.0
20/03:30am 21.0 20.5 12.2 57 4.9 ENE 6 11 3 6 1011.7 1011.6 0.0
20/03:00am 21.1 20.7 13.0 60 4.6 NE 7 11 4 6 1011.8 1011.7 0.0
20/02:30am 22.0 21.5 12.0 53 5.6 ESE 6 11 3 6 1011.8 1011.7 0.0
20/02:00am 21.3 22.3 13.2 60 4.6 CALM 0 7 0 4 1011.9 1011.8 0.0
20/01:30am 21.2 22.1 15.1 68 3.6 ENE 4 9 2 5 1011.9 1011.8 0.0
20/01:00am 20.1 21.8 16.3 79 2.3 SE 2 9 1 5 1012.3 1012.1 0.0
20/12:30am 20.9 23.3 17.1 79 2.3 CALM 0 0 0 0 1012.5 1012.3 0.0
20/12:00am 22.1 24.1 16.1 69 3.6 CALM 0 6 0 3 1012.7 1012.5 0.0
 
Date/Time
WST
Temp
°C
App
Temp
°C
Dew
Point
°C
Rel
Hum
%
Delta-T
°C
Wind Press
QNH
hPa
Press
MSL
hPa
Rain since
9am
mm
Dir  Spd
km/h
Gust
km/h
Spd
kts
Gust
kts
19/11:30pm 22.5 23.6 17.0 71 3.4 SSW 7 13 4 7 1012.6 1012.4 0.0
19/11:00pm 22.7 24.2 17.6 73 3.2 SW 6 11 3 6 1012.7 1012.5 0.0
19/10:30pm 22.5 24.8 17.8 75 2.9 SW 2 11 1 6 1012.8 1012.6 0.0
19/10:00pm 23.0 24.9 17.7 72 3.3 SW 4 9 2 5 1012.6 1012.4 0.0
19/09:30pm 23.4 24.3 17.6 70 3.6 SW 9 13 5 7 1012.7 1012.5 0.0
19/09:00pm 23.5 25.0 17.5 69 3.7 WSW 6 11 3 6 1012.6 1012.4 0.0
19/08:30pm 23.7 24.4 17.0 66 4.1 SW 9 13 5 7 1012.5 1012.3 0.0
19/08:00pm 24.1 24.9 16.4 62 4.7 SW 7 13 4 7 1012.4 1012.2 0.0
19/07:30pm 24.2 24.8 15.7 59 5.1 SW 7 15 4 8 1012.0 1011.9 0.0
19/07:00pm 24.9 24.1 15.2 54 5.8 SW 13 20 7 11 1011.9 1011.8 0.0
19/06:30pm 25.3 24.5 15.0 53 6.2 SW 13 20 7 11 1011.6 1011.5 0.0
19/06:00pm 26.2 25.1 15.3 51 6.6 SSW 15 24 8 13 1011.4 1011.3 0.0
19/05:30pm 26.9 26.0 15.9 51 6.7 SW 15 26 8 14 1011.2 1011.1 0.0
19/05:00pm 28.4 26.8 15.0 44 8.2 SW 17 26 9 14 1011.1 1011.0 0.0
19/04:30pm 29.2 27.2 13.8 39 9.2 SW 17 28 9 15 1011.0 1010.9 0.0
19/04:00pm 29.9 28.2 13.6 36 9.8 SW 15 26 8 14 1011.0 1010.9 0.0
19/03:30pm 29.2 26.5 13.0 37 9.6 WSW 19 28 10 15 1011.1 1011.0 0.0
19/03:00pm 30.1 27.6 13.4 36 10.0 WSW 19 28 10 15 1011.1 1011.0 0.0
19/02:30pm 30.6 27.9 13.0 34 10.5 WSW 19 28 10 15 1011.3 1011.2 0.0
19/02:00pm 31.2 28.9 11.6 30 11.4 WSW 15 24 8 13 1011.5 1011.4 0.0
19/01:30pm 31.4 28.0 9.0 25 12.6 WSW 17 28 9 15 1011.9 1011.8 0.0
19/01:00pm 32.1 30.5 12.8 30 11.5 SW 13 22 7 12 1012.0 1011.9 0.0
19/12:30pm 32.3 31.3 13.5 32 11.3 SW 11 20 6 11 1012.3 1012.1 0.0
19/12:00pm 31.2 29.6 11.6 30 11.4 SSW 11 19 6 10 1012.7 1012.5 0.0
19/11:30am 30.0 28.6 11.0 31 10.9 SSE 9 15 5 8 1012.9 1012.7 0.0
19/11:00am 29.5 28.8 11.5 33 10.4 SE 6 9 3 5 1013.3 1013.1 0.0
19/10:30am 29.2 28.6 10.3 31 10.7 ESE 4 9 2 5 1013.4 1013.2 0.0
19/10:00am 26.9 25.6 11.4 38 8.8 SE 9 13 5 7 1013.7 1013.5 0.0
19/09:30am 25.9 25.1 11.6 40 8.1 ENE 7 15 4 8 1013.8 1013.6 0.0
19/09:00am 24.9 24.0 10.8 41 7.9 E 6 15 3 8 1013.7 1013.5 0.0
19/08:30am 23.7 22.9 11.1 45 7.0 ESE 6 13 3 7 1013.9 1013.7 0.0
19/08:00am 22.8 22.0 11.2 48 6.5 ESE 6 13 3 7 1013.8 1013.6 0.0
19/07:30am 21.4 20.5 11.4 53 5.6 SSE 7 11 4 6 1013.8 1013.6 0.0
19/07:00am 18.8 19.1 12.3 66 3.6 S 2 7 1 4 1013.7 1013.5 0.0
19/06:30am 16.2 17.1 12.9 81 1.8 CALM 0 0 0 0 1013.4 1013.2 0.0
19/06:00am 15.7 16.6 13.0 84 1.5 CALM 0 0 0 0 1013.1 1012.9 0.0
19/05:30am 15.9 16.8 13.0 83 1.6 CALM 0 0 0 0 1013.0 1012.8 0.0
19/05:00am 15.9 17.0 13.4 85 1.4 CALM 0 0 0 0 1012.9 1012.7 0.0
19/04:30am 16.2 17.4 13.9 86 1.3 CALM 0 0 0 0 1012.7 1012.5 0.0
19/04:00am 16.3 17.5 13.8 85 1.4 CALM 0 0 0 0 1012.5 1012.3 0.0
19/03:30am 16.7 17.9 13.8 83 1.6 CALM 0 0 0 0 1012.3 1012.1 0.0
19/03:00am 17.2 18.4 13.9 81 1.9 CALM 0 0 0 0 1012.1 1012.0 0.0
19/02:30am 17.9 19.0 13.6 76 2.4 CALM 0 0 0 0 1012.1 1012.0 0.0
19/02:00am 18.9 19.6 13.5 71 3.1 S 2 7 1 4 1012.3 1012.1 0.0
19/01:30am 19.8 19.7 14.0 69 3.3 S 7 9 4 5 1012.5 1012.3 0.0
19/01:00am 20.2 20.5 14.6 70 3.3 S 6 9 3 5 1012.7 1012.5 0.0
19/12:30am 20.6 21.2 14.3 67 3.7 S 4 9 2 5 1012.9 1012.7 0.0
19/12:00am 20.9 21.4 14.1 65 4.0 S 4 11 2 6 1013.0 1012.8 0.0
 
Date/Time
WST
Temp
°C
App
Temp
°C
Dew
Point
°C
Rel
Hum
%
Delta-T
°C
Wind Press
QNH
hPa
Press
MSL
hPa
Rain since
9am
mm
Dir  Spd
km/h
Gust
km/h
Spd
kts
Gust
kts
18/11:30pm 21.4 21.3 13.8 62 4.4 SSE 7 15 4 8 1013.1 1012.9 0.0
18/11:00pm 21.5 21.2 13.4 60 4.7 S 7 11 4 6 1013.3 1013.1 0.0
18/10:30pm 21.7 21.2 12.8 57 5.1 SSW 7 13 4 7 1013.4 1013.2 0.0
18/10:00pm 22.1 21.1 12.4 54 5.5 SSW 9 13 5 7 1013.7 1013.5 0.0
18/09:30pm 22.1 21.8 13.2 57 5.1 S 7 17 4 9 1013.9 1013.7 0.0
18/09:00pm 22.2 22.2 14.3 61 4.6 SSW 7 15 4 8 1013.7 1013.5 0.0
18/08:30pm 22.3 22.3 15.2 64 4.2 SSW 9 17 5 9 1013.5 1013.3 0.0
18/08:00pm 22.7 22.5 14.8 61 4.7 SW 9 17 5 9 1013.3 1013.1 0.0
18/07:30pm 23.3 22.6 14.3 57 5.3 SW 11 19 6 10 1013.1 1012.9 0.0
18/07:00pm 24.1 21.9 12.1 47 6.8 SW 15 28 8 15 1012.9 1012.7 0.0
18/06:30pm 24.8 22.2 12.1 45 7.3 SSW 17 26 9 14 1012.8 1012.6 0.0
18/06:00pm 25.9 24.2 12.4 43 7.8 SSW 13 24 7 13 1012.7 1012.5 0.0
18/05:30pm 26.7 24.7 12.7 42 8.2 SW 15 28 8 15 1012.7 1012.5 0.0
18/05:00pm 27.0 24.8 13.4 43 8.0 SW 17 28 9 15 1012.7 1012.5 0.0
18/04:30pm 27.4 25.9 14.1 44 7.9 SW 15 24 8 13 1012.6 1012.4 0.0
18/04:00pm 28.7 26.7 13.8 40 8.9 SW 17 28 9 15 1012.5 1012.3 0.0
18/03:30pm 28.4 26.0 12.7 38 9.2 SW 17 24 9 13 1012.5 1012.3 0.0
18/03:00pm 29.3 27.4 13.1 37 9.6 SSW 15 26 8 14 1012.7 1012.5 0.0
18/02:30pm 29.3 26.6 11.8 34 10.2 SW 17 28 9 15 1012.9 1012.7 0.0
18/02:00pm 30.0 29.0 12.4 34 10.3 S 9 19 5 10 1012.9 1012.7 0.0
18/01:30pm 30.7 29.1 10.1 28 11.7 SSE 9 17 5 9 1013.2 1013.0 0.0
18/01:00pm 30.1 28.3 9.6 28 11.5 NNE 9 11 5 6 1013.5 1013.3 0.0
18/12:30pm 28.7 26.8 8.9 29 10.9 SSW 9 13 5 7 1013.7 1013.5 0.0
18/12:00pm 28.0 26.5 9.3 31 10.4 NE 7 13 4 7 1014.1 1013.9 0.0
18/11:30am 27.5 25.9 10.2 34 9.7 ESE 9 17 5 9 1014.5 1014.3 0.0
18/11:00am 26.4 24.9 10.5 37 8.9 E 9 17 5 9 1014.8 1014.6 0.0
18/10:30am 25.1 23.6 10.6 40 8.1 ESE 9 17 5 9 1015.2 1015.0 0.0
18/10:00am 24.2 22.6 11.5 45 7.2 E 11 19 6 10 1015.4 1015.2 0.0
18/09:30am 23.0 21.7 11.4 48 6.5 E 9 20 5 11 1015.5 1015.3 0.0
18/09:00am 21.5 19.4 11.2 52 5.7 E 13 22 7 12 1015.4 1015.2 0.0
18/08:30am 20.3 17.7 10.7 54 5.2 E 15 26 8 14 1015.5 1015.3 0.0
18/08:00am 19.2 17.0 10.7 58 4.6 E 13 24 7 13 1015.5 1015.3 0.0
18/07:30am 18.0 15.6 10.1 60 4.2 E 13 26 7 14 1015.4 1015.2 0.0
18/07:00am 17.2 15.6 10.3 64 3.7 E 9 20 5 11 1015.3 1015.1 0.0
18/06:30am 16.5 14.1 9.9 65 3.5 E 13 24 7 13 1015.1 1014.9 0.0
18/06:00am 16.3 14.6 9.9 66 3.4 E 9 26 5 14 1014.8 1014.6 0.0
18/05:30am 16.6 14.9 9.8 64 3.6 E 9 19 5 10 1014.9 1014.7 0.0
18/05:00am 16.9 14.8 9.8 63 3.7 E 11 20 6 11 1014.5 1014.3 0.0
18/04:30am 17.1 15.9 10.2 64 3.7 E 7 13 4 7 1014.5 1014.3 0.0
18/04:00am 17.7 16.4 10.1 61 4.0 ESE 7 24 4 13 1014.3 1014.1 0.0
18/03:30am 18.7 16.6 9.8 56 4.7 E 11 20 6 11 1014.2 1014.0 0.0
18/03:00am 19.3 17.1 9.5 53 5.2 E 11 22 6 12 1014.3 1014.1 0.0
18/02:30am 20.2 17.6 9.2 49 5.8 ESE 13 22 7 12 1014.0 1013.8 0.0
18/02:00am 20.9 18.5 8.5 45 6.5 ESE 11 26 6 14 1014.0 1013.8 0.0
18/01:30am 21.5 19.0 8.1 42 7.0 ESE 11 20 6 11 1014.2 1014.0 0.0
18/01:00am 22.0 19.4 7.8 40 7.4 E 11 26 6 14 1014.2 1014.0 0.0
18/12:30am 22.8 20.0 7.0 36 8.2 ESE 11 20 6 11 1014.3 1014.1 0.0
18/12:00am 23.4 20.2 6.7 34 8.6 ESE 13 20 7 11 1014.4 1014.2 0.0
 
Date/Time
WST
Temp
°C
App
Temp
°C
Dew
Point
°C
Rel
Hum
%
Delta-T
°C
Wind Press
QNH
hPa
Press
MSL
hPa
Rain since
9am
mm
Dir  Spd
km/h
Gust
km/h
Spd
kts
Gust
kts
17/11:30pm 23.6 21.2 6.8 34 8.7 ESE 9 19 5 10 1014.6 1014.4 0.0
17/11:00pm 24.0 21.1 6.7 33 8.9 ESE 11 22 6 12 1014.9 1014.7 0.0
17/10:30pm 23.8 21.2 6.1 32 9.0 SE 9 20 5 11 1014.9 1014.7 0.0
17/10:00pm 21.4 20.9 12.0 55 5.3 SSE 6 9 3 5 1014.9 1014.7 0.0
17/09:30pm 20.4 22.1 15.2 72 3.1 CALM 0 0 0 0 1015.0 1014.8 0.0

Other formats

Comma delimited format used in spreadsheet applications
http://www.bom.gov.au/fwo/IDW60801/IDW60801.94608.axf

JavaScript Object Notation format (JSON) in row-major order
http://www.bom.gov.au/fwo/IDW60801/IDW60801.94608.json

Data quality

Most of these data are generated automatically and are frequently updated. Quality checks on data are not normally performed. It is possible for incorrect values to appear. Refer to information at About Latest Weather Observations and please check the disclaimer before using these data.